Time;durP1;ratioP1;P1;durP2;ratioP2;P2;SDS_P1;SDS_P2;PMS_P1;PMS_P2;Temp;Humidity;BMP_temperature;BMP_pressure;BME280_temperature;BME280_humidity;BME280_pressure;Samples;Min_cycle;Max_cycle;Signal;HPM_P1;HPM_P2
2023/05/10 05:00:14;;;;;;;1.43;1.00;;;14.80;97.20;;;;;;2130785;23;20158;-67
2023/05/10 05:01:06;;;;;;;1.58;1.10;;;14.80;97.20;;;;;;2131397;23;20180;-66
2023/05/10 05:01:58;;;;;;;1.35;1.05;;;14.80;97.20;;;;;;2131652;23;20674;-67
2023/05/10 05:02:48;;;;;;;1.20;0.90;;;14.80;97.20;;;;;;2131745;23;20180;-66
2023/05/10 05:03:40;;;;;;;1.20;0.90;;;14.80;97.20;;;;;;2131443;23;20255;-67
2023/05/10 05:04:31;;;;;;;2.05;1.42;;;14.80;97.20;;;;;;2130984;23;20199;-66
2023/05/10 05:05:23;;;;;;;1.63;0.80;;;14.90;97.20;;;;;;2131428;23;20247;-67
2023/05/10 05:06:14;;;;;;;2.15;1.00;;;14.90;97.20;;;;;;2131530;23;20176;-66
2023/05/10 05:07:05;;;;;;;1.48;1.00;;;14.90;97.20;;;;;;2131609;23;20654;-67
2023/05/10 05:07:57;;;;;;;1.30;1.17;;;14.90;97.20;;;;;;2131428;23;20715;-66
2023/05/10 05:08:49;;;;;;;1.20;0.90;;;14.90;97.20;;;;;;2131598;23;20180;-70
2023/05/10 05:09:40;;;;;;;1.05;0.90;;;15.00;97.20;;;;;;2130188;23;20230;-69
2023/05/10 05:10:31;;;;;;;1.55;1.00;;;15.00;97.20;;;;;;2131202;23;20204;-69
2023/05/10 05:11:23;;;;;;;2.13;1.00;;;15.00;97.20;;;;;;2131533;23;20180;-69
2023/05/10 05:12:14;;;;;;;1.95;1.10;;;15.10;97.20;;;;;;2131558;23;20254;-69
2023/05/10 05:13:05;;;;;;;1.10;1.00;;;15.10;97.20;;;;;;2131579;23;20180;-69
2023/05/10 05:13:58;;;;;;;3.08;1.10;;;15.10;97.20;;;;;;2131742;23;20411;-68
2023/05/10 05:14:50;;;;;;;1.17;1.00;;;15.10;97.20;;;;;;2131074;23;20180;-69
2023/05/10 05:15:42;;;;;;;1.83;0.98;;;15.10;97.20;;;;;;2131062;23;20191;-68
2023/05/10 05:16:34;;;;;;;1.17;1.05;;;15.10;97.20;;;;;;2131415;23;20183;-69
2023/05/10 05:17:25;;;;;;;1.42;1.00;;;15.20;97.20;;;;;;2131754;23;20641;-69
2023/05/10 05:18:15;;;;;;;1.17;1.00;;;15.20;97.20;;;;;;2131282;23;20184;-69
2023/05/10 05:19:07;;;;;;;3.47;1.00;;;15.20;97.20;;;;;;2131269;23;20179;-69
2023/05/10 05:19:58;;;;;;;1.80;1.10;;;15.20;97.20;;;;;;2130218;23;20508;-69
2023/05/10 05:20:50;;;;;;;2.47;0.90;;;15.20;97.20;;;;;;2131070;23;20220;-69
2023/05/10 05:21:40;;;;;;;3.08;1.10;;;15.20;97.20;;;;;;2130926;23;20183;-69
2023/05/10 05:22:32;;;;;;;1.67;0.97;;;15.30;97.20;;;;;;2131202;23;20176;-69
2023/05/10 05:23:24;;;;;;;1.30;1.20;;;15.30;97.20;;;;;;2131876;23;20187;-68
2023/05/10 05:24:16;;;;;;;3.45;1.00;;;15.30;97.20;;;;;;2131888;23;20623;-69
2023/05/10 05:25:07;;;;;;;1.10;1.00;;;15.30;97.20;;;;;;2131852;23;20187;-69
2023/05/10 05:25:59;;;;;;;1.05;0.95;;;15.30;97.20;;;;;;2131826;23;20179;-69
2023/05/10 05:26:50;;;;;;;1.50;1.40;;;15.20;97.20;;;;;;2131754;23;20176;-69
2023/05/10 05:27:42;;;;;;;1.23;1.00;;;15.20;97.20;;;;;;2131840;23;20210;-69
2023/05/10 05:28:36;;;;;;;1.10;1.00;;;15.20;97.20;;;;;;2129640;23;20512;-68
2023/05/10 05:29:28;;;;;;;2.20;1.30;;;15.20;97.20;;;;;;2131145;23;20199;-69
2023/05/10 05:30:19;;;;;;;1.30;1.20;;;15.20;97.20;;;;;;2131015;23;20623;-69
2023/05/10 05:31:13;;;;;;;3.10;1.10;;;15.20;97.20;;;;;;2131420;23;20164;-70
2023/05/10 05:32:04;;;;;;;1.10;1.00;;;15.20;97.20;;;;;;2131351;23;20235;-70
2023/05/10 05:32:56;;;;;;;3.95;1.30;;;15.20;97.20;;;;;;2130986;23;20226;-69
2023/05/10 05:33:47;;;;;;;1.85;1.10;;;15.20;97.20;;;;;;2131313;23;20184;-68
2023/05/10 05:34:39;;;;;;;1.50;1.40;;;15.20;97.20;;;;;;2131432;23;20182;-69
2023/05/10 05:35:30;;;;;;;2.22;1.45;;;15.30;97.20;;;;;;2120396;23;20177;-69
2023/05/10 05:36:22;;;;;;;3.63;1.27;;;15.30;97.20;;;;;;2120189;23;20223;-66
2023/05/10 05:37:14;;;;;;;1.60;1.50;;;15.30;97.20;;;;;;2127642;23;20632;-68
2023/05/10 05:38:05;;;;;;;1.73;1.63;;;15.30;97.20;;;;;;2131454;23;20631;-68
2023/05/10 05:38:56;;;;;;;2.50;1.80;;;15.30;97.20;;;;;;2131174;23;20180;-68
2023/05/10 05:39:49;;;;;;;1.95;1.73;;;15.30;97.20;;;;;;2130521;23;20258;-69
2023/05/10 05:40:39;;;;;;;2.55;2.35;;;15.30;97.20;;;;;;2131576;23;20195;-69
2023/05/10 05:41:31;;;;;;;2.33;2.20;;;15.30;97.20;;;;;;2131335;23;20168;-68
2023/05/10 05:42:22;;;;;;;4.40;4.00;;;15.30;97.20;;;;;;2131629;23;20636;-68
2023/05/10 05:43:13;;;;;;;3.90;3.03;;;15.30;97.20;;;;;;2131521;23;20503;-68
2023/05/10 05:44:04;;;;;;;2.35;2.15;;;15.30;97.20;;;;;;2131336;23;20180;-68
2023/05/10 05:44:56;;;;;;;2.17;1.90;;;15.30;97.20;;;;;;2131132;23;20172;-68
2023/05/10 05:45:47;;;;;;;3.95;1.90;;;15.30;97.20;;;;;;2130827;23;20207;-69
2023/05/10 05:46:40;;;;;;;1.70;1.60;;;15.30;97.20;;;;;;2131292;23;20195;-68
2023/05/10 05:47:31;;;;;;;1.52;1.20;;;15.30;97.20;;;;;;2131009;23;20195;-69
2023/05/10 05:48:22;;;;;;;2.50;1.70;;;15.30;97.20;;;;;;2131566;23;20168;-68
2023/05/10 05:49:13;;;;;;;1.50;1.40;;;15.30;97.20;;;;;;2131366;23;20407;-68
2023/05/10 05:50:06;;;;;;;7.60;1.33;;;15.30;97.20;;;;;;2130311;23;20178;-69
2023/05/10 05:50:57;;;;;;;1.98;1.50;;;15.30;97.20;;;;;;2130933;23;20958;-68
2023/05/10 05:51:49;;;;;;;3.15;1.30;;;15.30;97.20;;;;;;2131178;23;20172;-69
2023/05/10 05:52:40;;;;;;;2.28;1.42;;;15.30;97.20;;;;;;2131375;23;20179;-68
2023/05/10 05:53:31;;;;;;;2.73;1.87;;;15.40;97.20;;;;;;2131363;23;20168;-68
2023/05/10 05:54:22;;;;;;;3.78;1.55;;;15.40;97.20;;;;;;2131510;23;20789;-73
2023/05/10 05:55:14;;;;;;;1.70;1.60;;;15.40;97.20;;;;;;2131458;23;20498;-70
2023/05/10 05:56:05;;;;;;;2.15;1.60;;;15.40;97.20;;;;;;2130766;23;20524;-70
2023/05/10 05:56:57;;;;;;;1.40;1.30;;;15.40;97.20;;;;;;2130891;23;20171;-69
2023/05/10 05:57:48;;;;;;;2.20;1.75;;;15.50;97.20;;;;;;2131307;23;20188;-70
2023/05/10 05:58:40;;;;;;;1.97;1.50;;;15.50;97.20;;;;;;2131511;23;20172;-71
2023/05/10 05:59:30;;;;;;;1.95;1.85;;;15.50;97.20;;;;;;2130745;23;20179;-71
2023/05/10 06:00:22;;;;;;;2.63;2.03;;;15.50;97.20;;;;;;2131162;23;20251;-70
2023/05/10 06:01:13;;;;;;;1.30;1.10;;;15.60;97.20;;;;;;2131353;23;20652;-69
2023/05/10 06:02:06;;;;;;;1.50;1.40;;;15.60;97.20;;;;;;2131231;23;20632;-67
2023/05/10 06:02:57;;;;;;;1.27;1.17;;;15.60;97.20;;;;;;2131208;23;20619;-69
2023/05/10 06:03:49;;;;;;;2.13;1.30;;;15.70;97.20;;;;;;2131388;23;20226;-69
2023/05/10 06:04:40;;;;;;;4.93;1.40;;;15.70;97.20;;;;;;2131230;23;20262;-69
2023/05/10 06:05:31;;;;;;;2.63;1.50;;;15.70;97.20;;;;;;2131472;23;20168;-70
2023/05/10 06:06:23;;;;;;;1.20;1.10;;;15.70;97.20;;;;;;2131022;23;20632;-70
2023/05/10 06:07:14;;;;;;;1.33;1.23;;;15.80;97.20;;;;;;2131277;23;20180;-70
2023/05/10 06:08:06;;;;;;;1.23;1.13;;;15.80;97.20;;;;;;2129279;23;20180;-68
2023/05/10 06:08:56;;;;;;;3.35;1.30;;;15.80;97.20;;;;;;2131266;23;20651;-69
2023/05/10 06:09:48;;;;;;;1.90;1.50;;;15.80;97.20;;;;;;2130208;23;20632;-70
2023/05/10 06:10:39;;;;;;;3.78;1.70;;;15.90;97.20;;;;;;2131216;23;20207;-70
2023/05/10 06:11:31;;;;;;;2.90;1.10;;;15.90;97.20;;;;;;2131221;23;20183;-70
2023/05/10 06:12:22;;;;;;;1.42;1.20;;;15.90;97.20;;;;;;2131521;23;20536;-70
2023/05/10 06:13:14;;;;;;;2.80;1.20;;;16.00;97.20;;;;;;2131345;23;20179;-71
2023/05/10 06:14:06;;;;;;;1.48;1.35;;;16.00;97.20;;;;;;2131221;23;20234;-70
2023/05/10 06:14:58;;;;;;;2.75;1.50;;;16.00;97.20;;;;;;2130903;23;20231;-70
2023/05/10 06:15:49;;;;;;;2.17;1.00;;;16.00;97.20;;;;;;2130853;23;20180;-70
2023/05/10 06:16:40;;;;;;;1.40;1.30;;;16.10;97.20;;;;;;2130774;23;20172;-69
2023/05/10 06:17:33;;;;;;;1.30;1.20;;;16.10;97.20;;;;;;2130937;23;20180;-71
2023/05/10 06:18:25;;;;;;;1.77;1.30;;;16.10;97.20;;;;;;2130885;23;20571;-70
2023/05/10 06:19:15;;;;;;;2.30;1.40;;;16.10;97.20;;;;;;2130799;23;20176;-70
2023/05/10 06:20:08;;;;;;;1.50;1.40;;;16.20;97.20;;;;;;2131321;23;20251;-70
2023/05/10 06:20:59;;;;;;;1.30;1.10;;;16.20;97.20;;;;;;2130639;23;20745;-71
2023/05/10 06:21:51;;;;;;;1.50;1.40;;;16.20;97.20;;;;;;2131494;23;20643;-70
2023/05/10 06:22:42;;;;;;;1.60;1.50;;;16.30;97.20;;;;;;2131580;23;20180;-70
2023/05/10 06:23:34;;;;;;;1.17;1.07;;;16.30;97.20;;;;;;2131437;23;20168;-69
2023/05/10 06:24:24;;;;;;;4.20;1.10;;;16.30;97.20;;;;;;2131672;23;20410;-70
2023/05/10 06:25:17;;;;;;;2.27;1.00;;;16.30;97.20;;;;;;2131820;23;20178;-70
2023/05/10 06:26:08;;;;;;;1.30;1.20;;;16.30;97.20;;;;;;2131718;23;20176;-70
2023/05/10 06:27:00;;;;;;;1.83;1.57;;;16.30;97.20;;;;;;2131738;23;20172;-70
2023/05/10 06:27:55;;;;;;;1.40;1.30;;;16.30;97.20;;;;;;2131739;23;20175;-70
2023/05/10 06:28:47;;;;;;;4.13;1.63;;;16.30;97.20;;;;;;2131685;23;20179;-70
2023/05/10 06:29:37;;;;;;;1.35;1.20;;;16.30;97.20;;;;;;2131303;23;20187;-70
2023/05/10 06:30:29;;;;;;;1.30;1.20;;;16.30;97.20;;;;;;2131013;23;20619;-71
2023/05/10 06:31:21;;;;;;;1.30;1.20;;;16.30;97.20;;;;;;2131493;23;20176;-71
2023/05/10 06:32:11;;;;;;;1.30;1.20;;;16.40;97.20;;;;;;2131596;23;20198;-70
2023/05/10 06:33:04;;;;;;;2.20;1.40;;;16.40;97.20;;;;;;2131694;23;20176;-70
2023/05/10 06:33:55;;;;;;;3.50;1.30;;;16.40;97.20;;;;;;2131687;23;20723;-70
2023/05/10 06:34:47;;;;;;;1.50;1.20;;;16.40;97.20;;;;;;2131724;23;20526;-70
2023/05/10 06:35:38;;;;;;;1.50;1.35;;;16.40;97.20;;;;;;2131669;23;20404;-71
2023/05/10 06:36:30;;;;;;;2.15;1.50;;;16.40;97.20;;;;;;2131665;23;20643;-70
2023/05/10 06:37:21;;;;;;;2.50;1.30;;;16.40;97.20;;;;;;2131598;23;20216;-70
2023/05/10 06:38:12;;;;;;;1.93;1.60;;;16.40;97.20;;;;;;2131558;23;20178;-70
2023/05/10 06:39:03;;;;;;;2.40;1.58;;;16.50;97.20;;;;;;2131486;23;20187;-70
2023/05/10 06:39:55;;;;;;;4.50;1.43;;;16.50;97.20;;;;;;2131230;23;20176;-70
2023/05/10 06:40:46;;;;;;;2.17;1.60;;;16.50;97.20;;;;;;2131461;23;20196;-70
2023/05/10 06:41:37;;;;;;;2.63;1.53;;;16.50;97.20;;;;;;2131461;23;20178;-70
2023/05/10 06:42:28;;;;;;;1.70;1.60;;;16.50;97.20;;;;;;2131624;23;20172;-71
2023/05/10 06:43:20;;;;;;;3.00;1.60;;;16.50;97.20;;;;;;2131708;23;20172;-70
2023/05/10 06:44:10;;;;;;;1.75;1.58;;;16.50;97.20;;;;;;2131632;23;20176;-70
2023/05/10 06:45:02;;;;;;;1.47;1.33;;;16.50;97.20;;;;;;2131536;23;20172;-70
2023/05/10 06:45:53;;;;;;;1.52;1.42;;;16.40;97.20;;;;;;2131653;23;20180;-70
2023/05/10 06:46:45;;;;;;;3.60;1.53;;;16.40;97.20;;;;;;2131673;23;20176;-70
2023/05/10 06:47:35;;;;;;;2.35;1.60;;;16.40;97.20;;;;;;2131675;23;20510;-70
2023/05/10 06:48:28;;;;;;;2.10;1.90;;;16.40;97.20;;;;;;2131675;23;20194;-71
2023/05/10 06:49:19;;;;;;;2.30;2.10;;;16.30;97.20;;;;;;2131658;23;20236;-70
2023/05/10 06:50:12;;;;;;;1.80;1.70;;;16.30;97.20;;;;;;2131144;23;20219;-70
2023/05/10 06:51:02;;;;;;;1.45;1.33;;;16.30;97.20;;;;;;2131606;23;20176;-70
2023/05/10 06:51:55;;;;;;;3.00;1.50;;;16.20;97.20;;;;;;2131597;23;20400;-69
2023/05/10 06:52:45;;;;;;;1.40;1.30;;;16.20;97.20;;;;;;2131495;23;20446;-69
2023/05/10 06:53:37;;;;;;;1.30;1.20;;;16.10;97.20;;;;;;2131611;23;20195;-69
2023/05/10 06:54:28;;;;;;;1.52;1.40;;;16.10;97.20;;;;;;2131458;23;20198;-69
2023/05/10 06:55:20;;;;;;;3.47;1.50;;;16.10;97.20;;;;;;2131640;23;20190;-70
2023/05/10 06:56:10;;;;;;;3.78;1.85;;;16.00;97.20;;;;;;2131544;23;20180;-71
2023/05/10 06:57:02;;;;;;;2.20;1.50;;;16.00;97.20;;;;;;2131554;23;20171;-70
2023/05/10 06:57:53;;;;;;;1.83;1.50;;;16.00;97.20;;;;;;2131639;23;20616;-69
2023/05/10 06:58:45;;;;;;;1.40;1.30;;;16.00;97.20;;;;;;2131457;23;20864;-69
2023/05/10 06:59:36;;;;;;;1.60;1.50;;;16.00;97.20;;;;;;2131228;23;20183;-69
2023/05/10 07:00:28;;;;;;;1.50;1.30;;;16.00;97.20;;;;;;2131547;23;20175;-70
2023/05/10 07:01:18;;;;;;;1.50;1.40;;;16.00;97.20;;;;;;2131543;23;20509;-69
2023/05/10 07:02:10;;;;;;;1.60;1.50;;;16.10;97.20;;;;;;2131602;23;20194;-70
2023/05/10 07:03:01;;;;;;;7.68;1.63;;;16.10;97.20;;;;;;2131565;23;20639;-70
2023/05/10 07:03:54;;;;;;;1.40;1.30;;;16.20;97.20;;;;;;2131472;23;20509;-69
2023/05/10 07:04:47;;;;;;;3.28;1.60;;;16.30;97.20;;;;;;2131553;23;20183;-70
2023/05/10 07:05:38;;;;;;;2.30;1.50;;;16.30;97.20;;;;;;2131652;23;20682;-70
2023/05/10 07:06:29;;;;;;;2.40;1.25;;;16.40;97.20;;;;;;2131598;23;20179;-70
2023/05/10 07:07:21;;;;;;;2.07;1.30;;;16.40;97.20;;;;;;2131582;23;20172;-70
2023/05/10 07:08:13;;;;;;;2.05;1.25;;;16.50;97.20;;;;;;2131572;23;20512;-70
2023/05/10 07:09:04;;;;;;;1.52;1.42;;;16.50;97.20;;;;;;2131557;23;20386;-70
2023/05/10 07:09:57;;;;;;;2.88;1.35;;;16.60;97.20;;;;;;2131190;23;20180;-69
2023/05/10 07:10:48;;;;;;;2.60;1.52;;;16.60;97.20;;;;;;2131439;23;20199;-70
2023/05/10 07:11:39;;;;;;;1.93;1.57;;;16.60;97.20;;;;;;2131506;23;20199;-70
2023/05/10 07:12:30;;;;;;;2.60;1.58;;;16.70;97.20;;;;;;2131496;23;20176;-70
2023/05/10 07:13:22;;;;;;;1.43;1.27;;;16.70;97.20;;;;;;2131618;23;20172;-71
2023/05/10 07:14:13;;;;;;;1.65;1.55;;;16.70;97.20;;;;;;2131502;23;20180;-70
2023/05/10 07:15:05;;;;;;;1.80;1.40;;;16.70;97.20;;;;;;2131535;23;20182;-70
2023/05/10 07:15:56;;;;;;;1.42;0.98;;;16.70;97.20;;;;;;2131481;23;20189;-70
2023/05/10 07:16:48;;;;;;;2.00;1.80;;;16.70;97.20;;;;;;2131498;23;20255;-69
2023/05/10 07:17:38;;;;;;;1.95;1.27;;;16.80;97.20;;;;;;2131524;23;20180;-69
2023/05/10 07:18:30;;;;;;;2.07;1.67;;;16.70;97.20;;;;;;2131550;23;20296;-71
2023/05/10 07:19:22;;;;;;;5.18;1.42;;;16.70;97.20;;;;;;2131570;23;20203;-70
2023/05/10 07:20:14;;;;;;;3.75;1.75;;;16.70;97.20;;;;;;2130841;23;20182;-70
2023/05/10 07:21:05;;;;;;;2.22;1.92;;;16.80;97.20;;;;;;2131457;23;20180;-69
2023/05/10 07:21:56;;;;;;;1.93;1.43;;;16.80;97.20;;;;;;2131268;23;20658;-70
2023/05/10 07:22:47;;;;;;;2.15;1.50;;;16.80;97.20;;;;;;2131484;23;20403;-71
2023/05/10 07:23:39;;;;;;;2.80;1.50;;;16.80;97.20;;;;;;2131506;23;20174;-70
2023/05/10 07:24:31;;;;;;;1.80;1.25;;;16.90;97.20;;;;;;2131546;23;20180;-70
2023/05/10 07:25:22;;;;;;;1.85;1.30;;;16.90;97.20;;;;;;2131461;23;20612;-70
2023/05/10 07:26:14;;;;;;;1.30;1.20;;;16.90;97.20;;;;;;2131570;23;20180;-70
2023/05/10 07:27:06;;;;;;;1.42;1.33;;;16.90;97.20;;;;;;2131363;23;20176;-70
2023/05/10 07:27:57;;;;;;;2.75;1.75;;;16.90;97.20;;;;;;2131470;23;20187;-70
2023/05/10 07:28:48;;;;;;;2.70;1.40;;;16.90;97.20;;;;;;2131462;23;20627;-71
2023/05/10 07:29:39;;;;;;;1.60;1.48;;;17.00;97.20;;;;;;2130983;23;20187;-70
2023/05/10 07:30:31;;;;;;;1.50;1.40;;;17.00;97.20;;;;;;2130707;23;20168;-70
2023/05/10 07:31:22;;;;;;;1.50;1.40;;;17.00;97.20;;;;;;2131471;23;20167;-70
2023/05/10 07:32:13;;;;;;;1.93;1.47;;;17.00;97.20;;;;;;2131551;23;20175;-70
2023/05/10 07:33:04;;;;;;;2.15;1.27;;;17.00;97.20;;;;;;2131360;23;20196;-70
2023/05/10 07:33:56;;;;;;;3.00;1.40;;;17.00;97.20;;;;;;2131469;23;20172;-70
2023/05/10 07:34:48;;;;;;;2.20;1.58;;;17.00;97.20;;;;;;2131459;23;20180;-69
2023/05/10 07:35:40;;;;;;;1.88;1.58;;;16.90;97.20;;;;;;2131446;23;20179;-70
2023/05/10 07:36:30;;;;;;;2.15;1.20;;;16.90;97.20;;;;;;2131470;23;20180;-70
2023/05/10 07:37:22;;;;;;;1.40;1.27;;;16.90;97.20;;;;;;2131378;23;20172;-70
2023/05/10 07:38:13;;;;;;;1.83;1.50;;;16.90;97.20;;;;;;2131522;23;20180;-70
2023/05/10 07:39:05;;;;;;;1.70;1.60;;;16.90;97.20;;;;;;2131342;23;20176;-71
2023/05/10 07:39:55;;;;;;;1.35;1.25;;;16.90;97.20;;;;;;2131221;23;20206;-70
2023/05/10 07:40:47;;;;;;;2.50;1.60;;;16.90;97.20;;;;;;2131233;23;20196;-70
2023/05/10 07:41:38;;;;;;;1.90;1.00;;;16.90;97.20;;;;;;2131327;23;20407;-71
2023/05/10 07:42:30;;;;;;;1.93;1.30;;;17.00;97.20;;;;;;2131440;23;20167;-70
2023/05/10 07:43:20;;;;;;;2.10;1.20;;;17.00;97.20;;;;;;2131454;23;20414;-70
2023/05/10 07:44:12;;;;;;;1.33;1.23;;;17.00;97.20;;;;;;2131518;23;20172;-70
2023/05/10 07:45:04;;;;;;;1.40;1.30;;;17.00;97.20;;;;;;2131302;23;20196;-70
2023/05/10 07:45:57;;;;;;;1.80;1.20;;;17.00;97.20;;;;;;2131515;23;20186;-70
2023/05/10 07:46:48;;;;;;;1.55;1.20;;;17.00;97.20;;;;;;2131456;23;20506;-70
2023/05/10 07:47:39;;;;;;;2.17;1.30;;;17.00;97.20;;;;;;2131282;23;20234;-70
2023/05/10 07:48:31;;;;;;;2.08;1.23;;;17.00;97.20;;;;;;2131502;23;20184;-70
2023/05/10 07:49:23;;;;;;;2.17;1.20;;;17.00;97.20;;;;;;2131452;23;20515;-70
2023/05/10 07:50:16;;;;;;;2.22;1.17;;;17.10;97.20;;;;;;2130948;23;20191;-71
2023/05/10 07:51:09;;;;;;;3.50;1.55;;;17.10;97.20;;;;;;2131154;23;20176;-70
2023/05/10 07:51:59;;;;;;;1.60;1.15;;;17.10;97.20;;;;;;2131452;23;20505;-70
2023/05/10 07:52:51;;;;;;;3.13;1.10;;;17.10;97.20;;;;;;2131360;23;20195;-70
2023/05/10 07:53:42;;;;;;;1.55;1.20;;;17.10;97.20;;;;;;2131466;23;20191;-70
2023/05/10 07:54:34;;;;;;;1.53;1.23;;;17.10;97.20;;;;;;2131508;23;20277;-70
2023/05/10 07:55:25;;;;;;;2.40;1.40;;;17.10;97.20;;;;;;2131402;23;20180;-70
2023/05/10 07:56:26;;;;;;;1.87;1.30;;;17.00;97.20;;;;;;2131307;23;20172;-69
2023/05/10 07:57:18;;;;;;;4.47;1.25;;;17.00;97.20;;;;;;2131474;23;20588;-70
2023/05/10 07:58:09;;;;;;;1.60;1.20;;;17.00;97.20;;;;;;2131248;23;20171;-71
2023/05/10 07:59:01;;;;;;;1.65;1.17;;;17.00;97.20;;;;;;2131417;23;20184;-71
2023/05/10 07:59:52;;;;;;;1.88;1.30;;;17.00;97.20;;;;;;2131036;23;20255;-69
2023/05/10 08:00:43;;;;;;;1.75;1.27;;;17.00;97.20;;;;;;2131313;23;20207;-70
2023/05/10 08:01:35;;;;;;;1.43;1.10;;;17.00;97.20;;;;;;2131434;23;20182;-69
2023/05/10 08:02:26;;;;;;;1.95;1.00;;;17.00;97.20;;;;;;2131266;23;20180;-69
2023/05/10 08:03:18;;;;;;;1.67;1.00;;;17.00;97.20;;;;;;2131443;23;20164;-70
2023/05/10 08:04:08;;;;;;;2.65;1.10;;;17.00;97.20;;;;;;2131392;23;20646;-70
2023/05/10 08:05:00;;;;;;;1.30;1.10;;;17.00;97.20;;;;;;2131402;23;20515;-69
2023/05/10 08:05:52;;;;;;;1.17;1.08;;;17.00;97.20;;;;;;2131281;23;20199;-71
2023/05/10 08:06:44;;;;;;;2.55;1.10;;;17.00;97.20;;;;;;2131409;23;20225;-70
2023/05/10 08:07:34;;;;;;;1.92;0.90;;;16.90;97.20;;;;;;2131458;23;20391;-69
2023/05/10 08:08:26;;;;;;;4.07;0.90;;;17.00;97.20;;;;;;2131456;23;20214;-70
2023/05/10 08:09:17;;;;;;;1.40;1.08;;;17.00;97.20;;;;;;2131278;23;20176;-70
2023/05/10 08:10:10;;;;;;;1.20;1.10;;;17.00;97.20;;;;;;2130778;23;20176;-69
2023/05/10 08:11:01;;;;;;;2.45;1.00;;;17.00;97.20;;;;;;2131210;23;20176;-70
2023/05/10 08:11:53;;;;;;;2.07;1.30;;;17.00;97.20;;;;;;2131356;23;20179;-70
2023/05/10 08:12:44;;;;;;;1.33;1.00;;;17.00;97.20;;;;;;2131166;23;20418;-70
2023/05/10 08:13:36;;;;;;;1.20;1.02;;;17.10;97.20;;;;;;2131453;23;20211;-69
2023/05/10 08:14:29;;;;;;;2.00;1.17;;;17.10;97.20;;;;;;2131278;23;20179;-69
2023/05/10 08:15:20;;;;;;;4.05;0.90;;;17.10;97.20;;;;;;2131397;23;20222;-69
2023/05/10 08:16:11;;;;;;;1.20;0.80;;;17.20;97.20;;;;;;2131437;23;20179;-70
2023/05/10 08:17:03;;;;;;;1.10;1.00;;;17.20;97.20;;;;;;2131275;23;20178;-70
2023/05/10 08:17:54;;;;;;;1.45;0.93;;;17.20;97.20;;;;;;2131280;23;20522;-69
2023/05/10 08:18:47;;;;;;;2.80;1.10;;;17.20;97.20;;;;;;2131415;23;20172;-71
2023/05/10 08:19:38;;;;;;;1.00;0.90;;;17.20;97.20;;;;;;2130955;23;20504;-70
2023/05/10 08:20:29;;;;;;;1.47;1.07;;;17.30;97.20;;;;;;2131323;23;20172;-69
2023/05/10 08:21:22;;;;;;;1.77;1.25;;;17.30;97.20;;;;;;2131292;23;20180;-69
2023/05/10 08:22:13;;;;;;;2.35;0.80;;;17.40;97.20;;;;;;2131387;23;20176;-69
2023/05/10 08:23:04;;;;;;;1.23;1.00;;;17.40;97.20;;;;;;2131215;23;20187;-70
2023/05/10 08:23:56;;;;;;;0.90;0.80;;;17.40;97.20;;;;;;2131263;23;20183;-69
2023/05/10 08:24:46;;;;;;;1.13;0.95;;;17.50;97.20;;;;;;2131342;23;20418;-69
2023/05/10 08:25:38;;;;;;;1.03;0.80;;;17.50;97.20;;;;;;2131202;23;20687;-71
2023/05/10 08:26:29;;;;;;;2.33;1.13;;;17.50;97.20;;;;;;2131397;23;20620;-69
2023/05/10 08:27:21;;;;;;;0.90;0.80;;;17.60;97.20;;;;;;2131242;23;20507;-70
2023/05/10 08:28:11;;;;;;;2.45;0.75;;;17.60;97.20;;;;;;2131377;23;20179;-71
2023/05/10 08:29:03;;;;;;;0.80;0.80;;;17.70;97.20;;;;;;2131308;23;20175;-69
2023/05/10 08:29:54;;;;;;;2.28;1.00;;;17.70;97.20;;;;;;2130807;23;20180;-69
2023/05/10 08:30:46;;;;;;;1.60;1.00;;;17.80;97.20;;;;;;2130573;23;20204;-70
2023/05/10 08:31:36;;;;;;;1.45;0.73;;;17.90;97.20;;;;;;2131077;23;20183;-69
2023/05/10 08:32:28;;;;;;;1.73;0.83;;;17.90;97.20;;;;;;2131235;23;20366;-69
2023/05/10 08:33:19;;;;;;;2.75;0.90;;;17.90;97.20;;;;;;2131302;23;20195;-70
2023/05/10 08:34:11;;;;;;;1.17;0.90;;;18.00;97.20;;;;;;2131355;23;20226;-70
2023/05/10 08:35:02;;;;;;;3.28;0.90;;;17.90;97.20;;;;;;2131306;23;20187;-72
2023/05/10 08:35:54;;;;;;;2.35;1.50;;;18.00;97.20;;;;;;2131363;23;20171;-70
2023/05/10 08:36:46;;;;;;;2.22;1.10;;;18.00;97.20;;;;;;2131361;23;20183;-69
2023/05/10 08:37:37;;;;;;;2.50;0.75;;;18.00;97.20;;;;;;2131400;23;20176;-70
2023/05/10 08:38:28;;;;;;;1.00;0.80;;;18.10;97.20;;;;;;2131328;23;20175;-69
2023/05/10 08:39:20;;;;;;;2.97;0.70;;;18.10;97.20;;;;;;2131381;23;20196;-69
2023/05/10 08:40:12;;;;;;;1.15;0.70;;;18.10;97.20;;;;;;2130999;23;20508;-69
2023/05/10 08:41:03;;;;;;;2.78;1.00;;;18.10;97.20;;;;;;2131352;23;20211;-69
2023/05/10 08:42:01;;;;;;;2.60;0.90;;;18.10;97.20;;;;;;2131300;23;20180;-69
2023/05/10 08:42:59;;;;;;;1.67;0.90;;;18.10;97.20;;;;;;2131388;23;20156;-70
2023/05/10 08:43:50;;;;;;;4.82;0.90;;;18.20;97.20;;;;;;2131378;23;20165;-69
2023/05/10 08:44:43;;;;;;;1.00;0.70;;;18.20;97.20;;;;;;2131349;23;20295;-69
2023/05/10 08:45:37;;;;;;;1.02;0.80;;;18.20;97.20;;;;;;2131346;23;20180;-69
2023/05/10 08:46:30;;;;;;;1.60;0.73;;;18.30;97.20;;;;;;2131295;23;20176;-70
2023/05/10 08:47:21;;;;;;;3.03;1.25;;;18.30;97.20;;;;;;2131375;23;20180;-70
2023/05/10 08:48:13;;;;;;;1.45;1.00;;;18.20;97.20;;;;;;2131371;23;20542;-71
2023/05/10 08:49:06;;;;;;;1.20;0.90;;;18.20;97.20;;;;;;2131244;23;20187;-69
2023/05/10 08:49:59;;;;;;;1.88;1.00;;;18.20;97.20;;;;;;2130933;23;20172;-70
2023/05/10 08:50:53;;;;;;;1.73;0.85;;;18.20;97.20;;;;;;2131365;23;20207;-70
2023/05/10 08:51:51;;;;;;;1.70;0.80;;;18.20;97.20;;;;;;2131316;23;20334;-69
2023/05/10 08:52:42;;;;;;;0.90;0.70;;;18.20;97.20;;;;;;2131358;23;20508;-69
2023/05/10 08:53:36;;;;;;;1.40;0.82;;;18.20;97.20;;;;;;2131152;23;20196;-69
2023/05/10 08:54:28;;;;;;;0.80;0.52;;;18.20;97.20;;;;;;2131333;23;20664;-70
2023/05/10 08:55:19;;;;;;;1.02;0.80;;;18.20;97.20;;;;;;2131373;23;20180;-69
2023/05/10 08:56:10;;;;;;;0.90;0.70;;;18.30;97.20;;;;;;2131335;23;20194;-70
2023/05/10 08:57:01;;;;;;;0.80;0.70;;;18.30;97.20;;;;;;2131329;23;20517;-70
2023/05/10 08:57:53;;;;;;;0.90;0.70;;;18.30;97.20;;;;;;2131364;23;20183;-69
2023/05/10 08:58:45;;;;;;;3.47;1.00;;;18.30;97.20;;;;;;2131321;23;20252;-71
2023/05/10 08:59:39;;;;;;;0.77;0.60;;;18.30;97.20;;;;;;2130912;23;20176;-70
2023/05/10 09:00:31;;;;;;;0.77;0.63;;;18.30;97.20;;;;;;2131048;23;20172;-70
2023/05/10 09:01:23;;;;;;;1.00;0.75;;;18.30;97.20;;;;;;2131238;23;20172;-70
2023/05/10 09:02:15;;;;;;;3.47;0.80;;;18.30;97.20;;;;;;2131294;23;20180;-70
2023/05/10 09:03:06;;;;;;;3.03;0.95;;;18.40;97.20;;;;;;2131282;23;20187;-70
2023/05/10 09:03:58;;;;;;;1.70;0.80;;;18.40;97.20;;;;;;2131204;23;20183;-71
2023/05/10 09:04:49;;;;;;;1.02;0.70;;;18.40;97.20;;;;;;2131179;23;20413;-70
2023/05/10 09:05:41;;;;;;;0.80;0.70;;;18.50;97.20;;;;;;2131370;23;20179;-70
2023/05/10 09:06:33;;;;;;;1.95;0.75;;;18.50;97.20;;;;;;2131357;23;20490;-70
2023/05/10 09:07:27;;;;;;;0.90;0.70;;;18.50;97.20;;;;;;2131419;23;20180;-70
2023/05/10 09:08:18;;;;;;;1.33;0.77;;;18.50;97.20;;;;;;2131320;23;20655;-70
2023/05/10 09:09:10;;;;;;;1.38;0.80;;;18.50;97.20;;;;;;2131289;23;20275;-70
2023/05/10 09:10:01;;;;;;;1.45;0.75;;;18.40;97.20;;;;;;2130886;23;20184;-72
2023/05/10 09:10:53;;;;;;;0.80;0.68;;;18.50;97.20;;;;;;2131187;23;20202;-69
2023/05/10 09:11:44;;;;;;;1.45;0.88;;;18.40;97.20;;;;;;2131213;23;20180;-70
2023/05/10 09:12:36;;;;;;;1.75;0.95;;;18.40;97.20;;;;;;2131377;23;20176;-70
2023/05/10 09:13:28;;;;;;;1.95;0.80;;;18.50;97.20;;;;;;2131172;23;20202;-70
2023/05/10 09:14:20;;;;;;;1.77;0.60;;;18.50;97.20;;;;;;2131426;23;20230;-70
2023/05/10 09:15:11;;;;;;;1.05;0.70;;;18.50;97.20;;;;;;2131147;23;20175;-70
2023/05/10 09:16:04;;;;;;;1.75;1.15;;;18.50;97.20;;;;;;2131296;23;20199;-69
2023/05/10 09:16:56;;;;;;;4.55;1.77;;;18.50;97.20;;;;;;2131231;23;20468;-70
2023/05/10 09:17:49;;;;;;;1.00;0.77;;;18.50;97.20;;;;;;2131097;23;20215;-69
2023/05/10 09:18:40;;;;;;;2.20;2.00;;;18.60;97.20;;;;;;2131089;23;20240;-70
2023/05/10 09:19:32;;;;;;;3.70;2.23;;;18.60;97.20;;;;;;2131059;23;20172;-72
2023/05/10 09:20:23;;;;;;;1.65;0.70;;;18.60;97.20;;;;;;2131018;23;20179;-70
2023/05/10 09:21:14;;;;;;;1.90;0.70;;;18.70;97.20;;;;;;2131167;23;20176;-69
2023/05/10 09:22:05;;;;;;;0.80;0.60;;;18.70;97.20;;;;;;2131775;23;20211;-71
2023/05/10 09:22:58;;;;;;;1.53;0.80;;;18.70;97.20;;;;;;2131811;23;20172;-69
2023/05/10 09:23:50;;;;;;;5.43;0.80;;;18.70;97.20;;;;;;2131883;23;20176;-71
2023/05/10 09:24:45;;;;;;;6.82;1.40;;;18.70;97.20;;;;;;2131686;23;20258;-71
2023/05/10 09:25:38;;;;;;;4.03;1.25;;;18.70;97.20;;;;;;2131966;23;20187;-70
2023/05/10 09:26:29;;;;;;;1.15;0.70;;;18.70;97.20;;;;;;2131833;23;20172;-70
2023/05/10 09:27:27;;;;;;;6.20;1.70;;;18.70;97.20;;;;;;2131899;23;20647;-70
2023/05/10 09:28:18;;;;;;;46.10;8.07;;;18.70;97.20;;;;;;2131945;23;20165;-70
2023/05/10 09:29:10;;;;;;;23.57;6.37;;;18.70;97.20;;;;;;2132050;23;20342;-69